Time;durP1;ratioP1;P1;durP2;ratioP2;P2;SDS_P1;SDS_P2;PMS_P1;PMS_P2;Temp;Humidity;BMP_temperature;BMP_pressure;BME280_temperature;BME280_humidity;BME280_pressure;Samples;Min_cycle;Max_cycle;Signal;HPM_P1;HPM_P2
2022/09/08 00:00:43;;;;;;;6.85;2.90;;;;;;;15.26;52.00;99106.78;5059917;28;20044;-73
2022/09/08 00:03:11;;;;;;;10.20;3.10;;;;;;;15.49;51.74;99110.00;5043261;28;20155;-73
2022/09/08 00:05:44;;;;;;;4.55;2.83;;;;;;;15.46;51.90;99109.56;5043118;28;20056;-73
2022/09/08 00:08:09;;;;;;;7.68;2.90;;;;;;;15.27;52.14;99105.75;5059443;28;20047;-74
2022/09/08 00:10:37;;;;;;;3.58;2.83;;;;;;;15.48;51.43;99102.16;5043053;28;20048;-75
2022/09/08 00:13:03;;;;;;;5.47;2.72;;;;;;;15.35;51.73;99110.09;5043148;28;20036;-75
2022/09/08 00:15:29;;;;;;;6.18;2.78;;;;;;;15.27;51.88;99107.63;5059987;28;20036;-75
2022/09/08 00:17:57;;;;;;;6.07;2.78;;;;;;;15.22;51.82;99103.69;5042783;28;20044;-75
2022/09/08 00:20:24;;;;;;;3.90;2.70;;;;;;;15.21;51.96;99111.91;5042853;28;20587;-75
2022/09/08 00:22:49;;;;;;;4.03;2.70;;;;;;;15.23;51.92;99115.22;5059542;28;20032;-75
2022/09/08 00:25:15;;;;;;;6.18;2.90;;;;;;;15.22;51.78;99114.38;5042922;28;20415;-74
2022/09/08 00:27:41;;;;;;;5.22;2.88;;;;;;;15.21;51.89;99112.75;5042537;28;20036;-75
2022/09/08 00:30:08;;;;;;;3.85;2.78;;;;;;;15.32;51.68;99119.38;5043250;28;20059;-75
2022/09/08 00:32:34;;;;;;;3.22;2.92;;;;;;;15.28;51.88;99113.59;5059351;28;20131;-76
2022/09/08 00:35:00;;;;;;;3.40;2.95;;;;;;;15.34;51.50;99113.81;5059437;28;20140;-75
2022/09/08 00:37:28;;;;;;;3.15;2.70;;;;;;;15.34;51.47;99105.78;5059323;28;20130;-75
2022/09/08 00:39:54;;;;;;;3.85;2.70;;;;;;;15.29;51.61;99111.75;5076094;28;20054;-75
2022/09/08 00:42:21;;;;;;;4.57;2.65;;;;;;;15.32;51.57;99118.53;5042849;28;20066;-76
2022/09/08 00:44:50;;;;;;;3.70;2.40;;;;;;;15.43;51.28;99118.00;5042478;28;20040;-75
2022/09/08 00:47:38;;;;;;;3.08;2.58;;;;;;;15.65;51.03;99119.50;5059417;28;20039;-75
2022/09/08 00:50:09;;;;;;;4.60;2.47;;;;;;;15.41;51.00;99088.75;5092513;28;20048;-76
2022/09/08 00:52:39;;;;;;;;;;;;;;;15.76;50.51;99119.72;5059435;28;20039;-75
2022/09/08 00:55:07;;;;;;;3.05;2.35;;;;;;;15.51;50.97;99115.97;5059121;28;20410;-76
2022/09/08 00:57:33;;;;;;;4.68;2.53;;;;;;;15.52;50.85;99122.97;5059286;28;20539;-76
2022/09/08 00:59:59;;;;;;;4.95;2.85;;;;;;;15.56;50.76;99120.72;5058854;28;20515;-76
2022/09/08 01:02:25;;;;;;;4.30;2.50;;;;;;;15.52;50.86;99125.63;5075518;28;20396;-76
2022/09/08 01:04:57;;;;;;;6.53;2.58;;;;;;;15.65;50.66;99111.47;5058628;28;20044;-76
2022/09/08 01:13:31;;;;;;;4.28;2.30;;;;;;;15.47;50.84;99111.22;5061360;28;20419;-76
2022/09/08 01:15:57;;;;;;;3.22;2.35;;;;;;;15.38;50.65;99123.09;5041995;28;20036;-76
2022/09/08 01:18:23;;;;;;;2.70;2.35;;;;;;;15.42;51.00;99119.84;5058405;28;20043;-75
2022/09/08 01:21:23;;;;;;;2.80;2.20;;;;;;;15.65;50.50;99127.53;5041763;28;20075;-75
2022/09/08 01:24:26;;;;;;;4.28;2.42;;;;;;;15.65;50.21;99120.34;5057038;28;20424;-76
2022/09/08 01:27:21;;;;;;;5.47;2.45;;;;;;;15.65;50.38;99122.16;5039409;28;20510;-76
2022/09/08 01:29:47;;;;;;;2.65;2.13;;;;;;;15.37;50.66;99119.59;5073239;28;20071;-76
2022/09/08 01:32:14;;;;;;;2.83;2.35;;;;;;;15.46;50.65;99126.44;5056042;28;20513;-76
2022/09/08 01:34:42;;;;;;;6.10;2.28;;;;;;;15.51;50.69;99129.34;5056119;28;20043;-75
2022/09/08 01:37:08;;;;;;;3.22;2.47;;;;;;;15.38;50.70;99134.66;5055510;28;20101;-75
2022/09/08 01:39:34;;;;;;;2.58;1.80;;;;;;;15.36;50.58;99133.19;5040338;28;20051;-74
2022/09/08 01:42:00;;;;;;;4.72;2.00;;;;;;;15.34;50.49;99133.38;5058378;28;20048;-74
2022/09/08 01:44:27;;;;;;;2.85;1.67;;;;;;;15.51;50.51;99129.34;5041362;28;20090;-74
2022/09/08 01:46:53;;;;;;;5.60;2.30;;;;;;;15.42;50.29;99135.09;5058002;28;20093;-75
2022/09/08 01:49:19;;;;;;;2.38;2.17;;;;;;;15.36;50.47;99136.66;5074841;28;20458;-75
2022/09/08 01:51:45;;;;;;;3.70;2.13;;;;;;;15.38;50.29;99131.97;5041380;28;20044;-75
2022/09/08 01:54:12;;;;;;;3.10;1.70;;;;;;;15.33;50.46;99139.72;5075870;28;20067;-75
2022/09/08 01:56:37;;;;;;;4.25;1.90;;;;;;;15.33;50.15;99141.59;5060231;28;20515;-76
2022/09/08 01:59:03;;;;;;;3.17;1.85;;;;;;;15.41;50.07;99144.16;5044149;28;20051;-75
2022/09/08 02:01:29;;;;;;;2.88;2.10;;;;;;;15.42;50.14;99135.09;5076804;28;20078;-75
2022/09/08 02:03:55;;;;;;;2.90;2.03;;;;;;;15.39;50.07;99144.31;5058415;28;20036;-74
2022/09/08 02:06:21;;;;;;;2.83;1.95;;;;;;;15.40;50.09;99143.31;5040718;28;20102;-75
2022/09/08 02:08:51;;;;;;;3.20;1.92;;;;;;;15.56;49.71;99137.56;5040707;28;20047;-76
2022/09/08 02:11:17;;;;;;;2.20;1.90;;;;;;;15.44;50.04;99136.53;5057385;28;20040;-74
2022/09/08 02:13:44;;;;;;;2.83;2.00;;;;;;;15.45;50.03;99140.88;5040712;28;20066;-75
2022/09/08 02:16:11;;;;;;;2.13;1.80;;;;;;;15.37;50.14;99143.69;5057436;28;20050;-76
2022/09/08 02:18:38;;;;;;;6.38;1.90;;;;;;;15.47;50.09;99146.81;5057775;28;20503;-75
2022/09/08 02:21:10;;;;;;;4.22;2.00;;;;;;;15.56;50.04;99148.28;5041189;28;20511;-74
2022/09/08 02:23:41;;;;;;;2.33;1.92;;;;;;;15.54;50.01;99154.88;5074357;28;20082;-76
2022/09/08 02:26:14;;;;;;;2.53;1.70;;;;;;;15.57;49.84;99149.13;5041028;28;20047;-74
2022/09/08 02:28:40;;;;;;;3.03;1.80;;;;;;;15.35;49.99;99153.75;5040523;28;20051;-75
2022/09/08 02:31:06;;;;;;;2.80;1.60;;;;;;;15.35;49.92;99156.44;5040609;28;20044;-75
2022/09/08 02:33:32;;;;;;;6.28;2.00;;;;;;;15.39;49.86;99168.41;5056902;28;20043;-74
2022/09/08 02:35:58;;;;;;;2.10;1.90;;;;;;;15.41;49.73;99163.69;5040323;28;20047;-74
2022/09/08 02:38:25;;;;;;;2.50;2.00;;;;;;;15.51;49.72;99161.47;5057000;28;20564;-74
2022/09/08 02:40:51;;;;;;;2.35;1.95;;;;;;;15.42;49.64;99160.00;5056947;28;20040;-75
2022/09/08 02:43:17;;;;;;;2.15;1.90;;;;;;;15.43;49.50;99169.66;5056723;28;20044;-74
2022/09/08 02:45:43;;;;;;;2.90;1.80;;;;;;;15.43;49.49;99164.31;5040266;28;20132;-76
2022/09/08 02:48:09;;;;;;;2.63;2.10;;;;;;;15.36;49.58;99166.09;5057076;28;20044;-74
2022/09/08 02:50:35;;;;;;;4.60;2.30;;;;;;;15.36;49.40;99171.44;5057075;28;20412;-74
2022/09/08 02:53:01;;;;;;;3.53;2.33;;;;;;;15.36;49.25;99174.13;5039976;28;20050;-75
2022/09/08 02:55:28;;;;;;;3.05;2.30;;;;;;;15.44;49.09;99168.63;5056802;28;20050;-75
2022/09/08 02:57:54;;;;;;;2.50;2.20;;;;;;;15.40;49.51;99183.44;5073084;28;20094;-75
2022/09/08 03:00:20;;;;;;;2.50;2.30;;;;;;;15.36;49.20;99178.66;5040135;28;20052;-75
2022/09/08 03:02:48;;;;;;;2.63;2.38;;;;;;;15.43;49.35;99185.72;5040370;28;20097;-75
2022/09/08 03:05:14;;;;;;;2.60;2.40;;;;;;;15.40;49.30;99182.63;5056488;28;20048;-75
2022/09/08 03:07:40;;;;;;;3.75;2.47;;;;;;;15.42;49.20;99184.09;5056927;28;20415;-75
2022/09/08 03:10:07;;;;;;;4.55;2.33;;;;;;;15.51;48.71;99196.25;5040048;28;20043;-75
2022/09/08 03:12:33;;;;;;;3.65;2.33;;;;;;;15.52;48.69;99189.88;5056216;28;20047;-75
2022/09/08 03:14:59;;;;;;;5.03;2.38;;;;;;;15.41;48.46;99192.31;5072972;28;20069;-75
2022/09/08 03:17:25;;;;;;;2.97;2.67;;;;;;;15.38;48.34;99203.38;5056342;28;20105;-75
2022/09/08 03:19:54;;;;;;;2.65;2.45;;;;;;;15.41;48.61;99200.34;5056259;28;20059;-75
2022/09/08 03:22:20;;;;;;;5.13;2.80;;;;;;;15.36;48.64;99203.56;5039090;28;20126;-75
2022/09/08 03:24:46;;;;;;;2.55;2.35;;;;;;;15.36;48.55;99200.06;5039667;28;20042;-74
2022/09/08 03:27:13;;;;;;;3.90;3.03;;;;;;;15.37;48.65;99207.91;5056482;28;20051;-79
2022/09/08 03:29:39;;;;;;;4.97;2.55;;;;;;;15.38;48.27;99203.38;5056361;28;20192;-74
2022/09/08 03:32:05;;;;;;;4.70;3.30;;;;;;;15.37;48.29;99205.22;5039393;28;20453;-75
2022/09/08 03:34:30;;;;;;;3.80;2.97;;;;;;;15.41;48.11;99219.06;5039662;28;20046;-74
2022/09/08 03:36:56;;;;;;;4.38;2.88;;;;;;;15.39;48.48;99207.72;5039383;28;20044;-74
2022/09/08 03:39:22;;;;;;;3.80;3.17;;;;;;;15.33;48.49;99203.94;5039493;28;20050;-73
2022/09/08 03:41:49;;;;;;;8.63;4.93;;;;;;;15.41;48.42;99222.56;5072723;28;20036;-75
2022/09/08 03:44:15;;;;;;;8.77;2.85;;;;;;;15.42;48.63;99215.38;5039334;28;20036;-75
2022/09/08 03:46:41;;;;;;;4.50;2.75;;;;;;;15.41;48.72;99225.22;5056477;28;20063;-74
2022/09/08 03:49:07;;;;;;;3.33;2.80;;;;;;;15.41;48.52;99227.09;5055868;28;20503;-74
2022/09/08 03:51:34;;;;;;;3.33;2.75;;;;;;;15.44;48.65;99224.84;5055942;28;20059;-74
2022/09/08 03:56:46;;;;;;;3.15;2.65;;;;;;;15.50;48.49;99240.09;5072413;28;20099;-75
2022/09/08 03:59:12;;;;;;;4.78;2.50;;;;;;;15.40;48.35;99234.28;5039525;28;20044;-75
2022/09/08 04:01:39;;;;;;;3.63;2.50;;;;;;;15.42;48.53;99237.59;5038682;28;20044;-75
2022/09/08 04:04:05;;;;;;;3.35;2.42;;;;;;;15.37;48.70;99240.00;5054180;28;20469;-75
2022/09/08 04:06:34;;;;;;;2.67;2.30;;;;;;;15.31;48.96;99245.31;5070885;28;20060;-76
2022/09/08 04:09:00;;;;;;;2.85;2.38;;;;;;;15.27;48.94;99247.56;5053307;28;20063;-75
2022/09/08 04:11:26;;;;;;;2.65;2.13;;;;;;;15.27;49.15;99244.88;5037323;28;20690;-74
2022/09/08 04:13:56;;;;;;;4.25;2.40;;;;;;;15.32;48.93;99246.97;5070816;28;20054;-75
2022/09/08 04:16:22;;;;;;;2.30;2.10;;;;;;;15.34;48.65;99251.13;5087707;28;20136;-73
2022/09/08 04:18:48;;;;;;;3.20;2.38;;;;;;;15.32;49.04;99247.78;5038975;28;20144;-75
2022/09/08 04:21:14;;;;;;;3.92;2.70;;;;;;;15.32;49.18;99253.16;5056142;28;20048;-74
2022/09/08 04:23:40;;;;;;;2.80;2.40;;;;;;;15.35;49.21;99252.75;5039007;28;20446;-75
2022/09/08 04:26:14;;;;;;;5.13;2.47;;;;;;;15.51;49.33;99249.78;5039129;28;20036;-75
2022/09/08 04:28:40;;;;;;;5.35;2.53;;;;;;;15.23;49.43;99232.94;5055590;28;20506;-74
2022/09/08 04:31:11;;;;;;;5.68;2.90;;;;;;;15.41;49.54;99232.44;5072354;28;20051;-74
2022/09/08 04:33:38;;;;;;;4.45;3.00;;;;;;;15.48;49.56;99249.34;5024629;28;20064;-73
2022/09/08 04:36:19;;;;;;;3.83;2.65;;;;;;;15.65;48.90;99256.88;5021280;28;20051;-77
2022/09/08 04:38:45;;;;;;;;;;;;;;;15.75;48.63;99262.66;5038896;28;20075;-73
2022/09/08 04:41:12;;;;;;;9.15;2.53;;;;;;;15.66;49.02;99261.19;5038513;28;19971;-74
2022/09/08 04:43:39;;;;;;;3.35;2.70;;;;;;;15.68;49.02;99258.31;5054699;28;20143;-73
2022/09/08 04:46:08;;;;;;;4.70;3.10;;;;;;;15.86;48.83;99256.72;5054404;28;20123;-73
2022/09/08 04:48:35;;;;;;;3.20;2.50;;;;;;;15.93;48.22;99254.88;5070875;28;20044;-74
2022/09/08 04:51:02;;;;;;;7.82;2.72;;;;;;;16.00;47.63;99257.59;5020656;28;20040;-73
2022/09/08 04:53:31;;;;;;;3.20;2.50;;;;;;;16.06;47.27;99257.63;5054784;28;20078;-75
2022/09/08 04:55:59;;;;;;;3.60;2.80;;;;;;;16.01;47.10;99260.06;5038115;28;20048;-74
2022/09/08 04:58:25;;;;;;;4.90;2.90;;;;;;;16.14;46.61;99262.81;5040236;28;20040;-76
2022/09/08 05:00:51;;;;;;;4.47;2.70;;;;;;;16.20;46.61;99266.50;5024523;28;20456;-73
2022/09/08 05:03:16;;;;;;;3.38;2.50;;;;;;;16.20;46.09;99270.03;5037280;28;20496;-74
2022/09/08 05:05:42;;;;;;;3.70;2.63;;;;;;;16.31;45.61;99273.97;5035672;28;20139;-75
2022/09/08 05:08:08;;;;;;;3.30;2.47;;;;;;;16.28;45.54;99277.03;5052961;28;20508;-74
2022/09/08 05:10:34;;;;;;;3.50;2.75;;;;;;;16.26;45.65;99281.78;5019302;28;20569;-75
2022/09/08 05:13:00;;;;;;;3.05;2.60;;;;;;;16.26;45.53;99279.94;5052550;28;20040;-75
2022/09/08 05:15:28;;;;;;;4.53;2.72;;;;;;;16.22;45.57;99292.06;5068664;28;20567;-75
2022/09/08 05:17:56;;;;;;;2.55;2.25;;;;;;;16.20;45.35;99285.25;5018694;28;20037;-75
2022/09/08 05:20:22;;;;;;;3.20;2.33;;;;;;;16.12;45.04;99291.63;5019170;28;20411;-76
2022/09/08 05:22:48;;;;;;;3.50;1.95;;;;;;;16.17;44.77;99283.00;5051856;28;20131;-76
2022/09/08 05:25:14;;;;;;;3.13;1.85;;;;;;;16.25;43.81;99288.19;5019037;28;20052;-77
2022/09/08 05:27:40;;;;;;;1.60;1.50;;;;;;;16.25;43.11;99299.69;5052152;28;20044;-78
2022/09/08 05:30:06;;;;;;;1.90;1.70;;;;;;;16.26;43.12;99301.38;5019366;28;20093;-78
2022/09/08 05:32:34;;;;;;;3.08;1.45;;;;;;;16.40;43.08;99310.25;5053362;28;20059;-79
2022/09/08 05:35:00;;;;;;;2.05;1.50;;;;;;;16.24;43.41;99306.09;5020742;28;20045;-74
2022/09/08 05:37:29;;;;;;;1.58;1.48;;;;;;;16.35;43.79;99316.22;5020799;28;20040;-75
2022/09/08 05:39:55;;;;;;;3.15;1.85;;;;;;;16.22;44.00;99321.53;5054321;28;20492;-76
2022/09/08 05:42:21;;;;;;;2.22;1.70;;;;;;;16.20;44.76;99317.41;5020525;28;20058;-79
2022/09/08 05:44:46;;;;;;;2.63;1.75;;;;;;;16.19;45.12;99316.59;5019332;28;20056;-73
2022/09/08 05:47:12;;;;;;;17.30;4.90;;;;;;;16.16;45.37;99314.31;5020890;28;20123;-74
2022/09/08 05:49:39;;;;;;;7.80;3.65;;;;;;;16.16;45.65;99317.00;5037151;28;20053;-74
2022/09/08 05:52:05;;;;;;;2.15;1.80;;;;;;;16.22;45.45;99323.41;5019982;28;20043;-76
2022/09/08 05:54:31;;;;;;;9.35;3.92;;;;;;;16.26;45.78;99317.44;5019719;28;20040;-74
2022/09/08 05:56:57;;;;;;;3.72;2.30;;;;;;;16.40;45.92;99319.13;5036541;28;20044;-74
2022/09/08 05:59:23;;;;;;;2.85;1.75;;;;;;;16.56;45.37;99320.63;5037139;28;20066;-72
2022/09/08 06:01:50;;;;;;;7.15;2.90;;;;;;;16.71;44.72;99322.09;5037020;28;20518;-78
2022/09/08 06:04:16;;;;;;;3.70;2.28;;;;;;;16.88;43.82;99330.59;5020132;28;20496;-71
2022/09/08 06:06:42;;;;;;;2.92;1.85;;;;;;;17.01;43.73;99327.06;5036904;28;20053;-71
2022/09/08 06:09:08;;;;;;;3.80;2.05;;;;;;;17.14;43.43;99324.38;5020019;28;20055;-71
2022/09/08 06:11:35;;;;;;;2.63;2.33;;;;;;;17.39;42.32;99336.13;5019084;28;20044;-71
2022/09/08 06:14:03;;;;;;;4.85;2.42;;;;;;;17.47;41.96;99342.13;5035707;28;20277;-70
2022/09/08 06:16:29;;;;;;;15.93;2.53;;;;;;;17.49;41.92;99331.19;5036503;28;20078;-71
2022/09/08 06:18:57;;;;;;;6.72;2.97;;;;;;;17.63;40.61;99343.56;5035104;28;20279;-71
2022/09/08 06:21:25;;;;;;;3.83;2.53;;;;;;;17.69;40.24;99318.53;5036016;28;20051;-71
2022/09/08 06:23:54;;;;;;;3.10;2.30;;;;;;;17.93;40.07;99336.63;5034960;28;20043;-71
2022/09/08 06:26:58;;;;;;;3.60;2.22;;;;;;;18.32;38.92;99344.53;5052492;28;20119;-71
2022/09/08 06:29:29;;;;;;;5.47;2.63;;;;;;;18.27;38.29;99341.66;5052895;28;20148;-72
2022/09/08 06:32:04;;;;;;;2.20;2.00;;;;;;;18.84;38.03;99349.63;5052495;28;20059;-70
2022/09/08 06:34:38;;;;;;;3.67;2.20;;;;;;;19.22;36.86;99344.97;5035257;28;20567;-71
2022/09/08 06:37:05;;;;;;;3.30;2.13;;;;;;;19.42;36.64;99348.34;5055878;28;20476;-70
2022/09/08 06:39:36;;;;;;;3.15;2.20;;;;;;;19.65;35.42;99347.72;5069105;28;20155;-71
2022/09/08 06:42:09;;;;;;;6.13;2.88;;;;;;;19.84;35.04;99341.28;5052540;28;20044;-71
2022/09/08 06:44:52;;;;;;;4.30;2.50;;;;;;;19.85;34.48;99342.97;5053443;28;20044;-67
2022/09/08 06:47:23;;;;;;;2.42;2.10;;;;;;;19.74;34.59;99352.59;5071127;28;20558;-71
2022/09/08 06:49:52;;;;;;;6.20;2.45;;;;;;;19.73;34.90;99358.19;5070193;28;20036;-70
2022/09/08 06:52:38;;;;;;;3.03;2.08;;;;;;;19.54;34.77;99361.94;5052142;28;20080;-71
2022/09/08 06:55:07;;;;;;;5.75;2.47;;;;;;;19.46;35.25;99365.72;5051922;28;20419;-72
2022/09/08 06:57:54;;;;;;;4.80;2.15;;;;;;;19.34;35.36;99372.88;5035487;28;20465;-71
2022/09/08 07:00:25;;;;;;;8.13;2.30;;;;;;;19.14;36.20;99376.75;5069896;28;20052;-70
2022/09/08 07:03:27;;;;;;;5.15;2.40;;;;;;;19.16;36.56;99382.75;5052388;28;20040;-70
2022/09/08 07:06:01;;;;;;;3.97;2.10;;;;;;;19.15;37.14;99375.69;5034942;28;20062;-70
2022/09/08 07:08:46;;;;;;;2.85;2.05;;;;;;;19.03;36.98;99356.75;5051844;28;20056;-69
2022/09/08 07:11:31;;;;;;;2.40;2.20;;;;;;;19.72;36.28;99378.94;5068227;28;20489;-71
2022/09/08 07:14:47;;;;;;;2.13;1.75;;;;;;;20.13;35.06;99375.59;5051256;28;20121;-70
2022/09/08 07:17:50;;;;;;;2.60;1.45;;;;;;;20.38;33.69;99381.75;5037736;28;20487;-70
2022/09/08 07:20:16;;;;;;;3.50;2.63;;;;;;;20.51;33.63;99384.25;5031168;28;20093;-72
2022/09/08 07:22:42;;;;;;;1.95;1.73;;;;;;;20.69;33.10;99378.84;5034932;28;20056;-70
2022/09/08 07:25:37;;;;;;;4.88;1.88;;;;;;;21.06;32.45;99384.97;5050494;28;20046;-69
2022/09/08 07:28:09;;;;;;;2.65;1.52;;;;;;;20.91;32.34;99382.66;5034035;28;20048;-69
2022/09/08 07:30:36;;;;;;;3.45;1.98;;;;;;;21.08;31.99;99380.16;5049514;28;20040;-70
2022/09/08 07:33:11;;;;;;;4.82;2.10;;;;;;;21.41;32.06;99375.88;5051210;28;20071;-69
2022/09/08 07:35:44;;;;;;;9.18;1.90;;;;;;;21.73;31.00;99382.56;5034627;28;20083;-69
2022/09/08 07:38:16;;;;;;;3.10;1.80;;;;;;;21.71;31.02;99378.47;5034303;28;20144;-70
2022/09/08 07:40:48;;;;;;;2.80;1.90;;;;;;;21.57;31.43;99383.25;5031759;28;20041;-70
2022/09/08 07:43:15;;;;;;;4.78;2.05;;;;;;;21.36;31.51;99381.13;5017218;28;20036;-70
2022/09/08 07:45:51;;;;;;;3.85;2.20;;;;;;;21.10;32.38;99378.03;5052832;28;20123;-70
2022/09/08 07:48:29;;;;;;;4.85;2.67;;;;;;;20.49;34.21;99383.69;5062727;28;20497;-71
2022/09/08 07:51:16;;;;;;;3.10;2.47;;;;;;;19.93;35.47;99381.19;5048348;28;20067;-69
2022/09/08 07:53:54;;;;;;;4.32;2.85;;;;;;;19.51;37.37;99384.72;5047989;28;20210;-70
2022/09/08 07:56:42;;;;;;;6.20;3.13;;;;;;;19.05;38.82;99384.25;5047940;28;20044;-69
2022/09/08 07:59:15;;;;;;;4.13;2.65;;;;;;;18.67;40.19;99382.63;5031414;28;20261;-69
2022/09/08 08:01:41;;;;;;;4.90;3.13;;;;;;;18.30;40.93;99395.00;5031574;28;20792;-69
2022/09/08 08:04:39;;;;;;;6.32;3.28;;;;;;;18.32;41.69;99382.19;5047868;28;20047;-69
2022/09/08 08:07:10;;;;;;;4.55;3.40;;;;;;;18.13;41.79;99383.91;5048685;28;20101;-69
2022/09/08 08:09:45;;;;;;;5.63;3.47;;;;;;;18.08;41.86;99390.97;5058605;28;20126;-69
2022/09/08 08:12:59;;;;;;;7.78;3.70;;;;;;;18.23;41.94;99395.06;5074652;28;20059;-69
2022/09/08 08:15:43;;;;;;;8.77;3.70;;;;;;;18.35;41.83;99384.44;5073855;28;20059;-69
2022/09/08 08:18:09;;;;;;;8.25;3.78;;;;;;;18.19;41.74;99382.22;5075098;28;20079;-69
2022/09/08 08:20:55;;;;;;;6.72;3.88;;;;;;;18.54;41.04;99391.63;5058250;28;20090;-69
2022/09/08 08:23:28;;;;;;;6.28;3.58;;;;;;;18.55;40.98;99398.66;5025481;28;20131;-69
2022/09/08 08:26:53;;;;;;;4.90;3.17;;;;;;;18.58;40.88;99397.38;5054592;28;20121;-69
2022/09/08 08:29:36;;;;;;;5.32;3.17;;;;;;;18.50;41.01;99405.72;4997810;28;20091;-70
2022/09/08 08:32:11;;;;;;;6.15;3.42;;;;;;;18.72;40.95;99401.66;5000936;28;20041;-70
2022/09/08 08:35:15;;;;;;;5.20;3.17;;;;;;;19.06;40.12;99412.84;5045814;28;20067;-69
2022/09/08 08:37:44;;;;;;;5.38;2.80;;;;;;;19.54;39.38;99411.22;5050989;28;20091;-70
2022/09/08 08:40:29;;;;;;;7.72;2.80;;;;;;;20.61;37.69;99411.53;5020723;28;20040;-71
2022/09/08 08:43:01;;;;;;;4.75;2.72;;;;;;;20.81;36.43;99416.66;5054464;28;20078;-70
2022/09/08 08:45:47;;;;;;;5.50;2.05;;;;;;;20.91;35.34;99419.63;5071058;28;20109;-72
2022/09/08 08:48:22;;;;;;;4.57;2.00;;;;;;;20.62;34.91;99402.38;5054006;28;20559;-71
2022/09/08 08:51:35;;;;;;;2.83;2.13;;;;;;;20.57;34.48;99423.00;5037688;28;20041;-72
2022/09/08 08:54:07;;;;;;;2.50;1.92;;;;;;;20.10;35.11;99417.31;5027392;28;20040;-70
2022/09/08 08:57:03;;;;;;;4.93;2.30;;;;;;;19.90;35.85;99418.56;5037336;28;20048;-70
2022/09/08 08:59:47;;;;;;;4.20;2.33;;;;;;;19.86;36.20;99418.19;5037603;28;20143;-70
2022/09/08 09:02:51;;;;;;;6.82;2.53;;;;;;;20.15;36.20;99426.63;5037944;28;20048;-70
2022/09/08 09:05:32;;;;;;;3.25;2.42;;;;;;;20.37;35.81;99425.13;5054098;28;20044;-71
2022/09/08 09:07:58;;;;;;;3.00;2.28;;;;;;;20.16;35.12;99422.91;5020603;28;20071;-71
2022/09/08 09:11:02;;;;;;;4.93;2.60;;;;;;;20.45;34.90;99435.63;5037164;28;20500;-71
2022/09/08 09:13:36;;;;;;;5.85;2.40;;;;;;;20.62;34.86;99437.47;5040166;28;20045;-73
2022/09/08 09:16:27;;;;;;;5.28;2.20;;;;;;;22.02;32.82;99444.91;5053835;28;20068;-70
2022/09/08 09:19:38;;;;;;;3.42;2.28;;;;;;;26.28;26.22;99443.81;5069671;28;20044;-70
2022/09/08 09:22:21;;;;;;;;;;;;;;;30.22;21.45;99444.34;5019089;28;20083;-72
2022/09/08 09:25:03;;;;;;;2.83;1.90;;;;;;;31.10;19.78;99456.44;5036933;28;19928;-72
2022/09/08 09:27:58;;;;;;;3.83;2.00;;;;;;;30.39;20.29;99427.44;5053587;28;20044;-72
2022/09/08 09:30:44;;;;;;;4.05;2.30;;;;;;;28.83;21.35;99436.88;5069608;28;20044;-71
2022/09/08 09:33:22;;;;;;;3.83;2.00;;;;;;;27.21;22.63;99440.09;5052935;28;20396;-70
2022/09/08 09:36:59;;;;;;;3.38;2.00;;;;;;;27.64;21.98;99445.06;5069100;28;20051;-72
2022/09/08 09:39:28;;;;;;;2.30;1.60;;;;;;;30.20;19.58;99440.28;4993221;28;20119;-72
2022/09/08 09:42:08;;;;;;;2.83;1.25;;;;;;;33.22;16.54;99445.97;4999354;28;20060;-72
2022/09/08 09:44:59;;;;;;;2.38;1.23;;;;;;;33.25;15.85;99444.50;5028861;28;20556;-72
2022/09/08 09:47:43;;;;;;;5.03;1.45;;;;;;;31.68;17.20;99448.69;5070059;28;20415;-73
2022/09/08 09:50:46;;;;;;;6.90;1.90;;;;;;;29.57;18.76;99433.94;5037053;28;20558;-73
2022/09/08 09:53:31;;;;;;;6.57;1.88;;;;;;;27.88;20.67;99431.69;5037164;28;20527;-73
2022/09/08 09:56:05;;;;;;;5.10;1.98;;;;;;;26.22;22.77;99439.41;5020151;28;20040;-72
2022/09/08 09:59:00;;;;;;;8.10;2.05;;;;;;;25.31;24.58;99452.53;5036493;28;20044;-73
2022/09/08 10:01:45;;;;;;;4.88;2.00;;;;;;;24.29;25.92;99462.44;5036817;28;20455;-74
2022/09/08 10:04:37;;;;;;;3.50;1.95;;;;;;;23.35;27.30;99454.41;5053411;28;20044;-73
2022/09/08 10:07:18;;;;;;;4.72;2.10;;;;;;;22.32;28.55;99459.91;5020021;28;20076;-73
2022/09/08 10:10:11;;;;;;;6.03;2.40;;;;;;;21.86;29.85;99451.84;5037103;28;20542;-74
2022/09/08 10:12:40;;;;;;;3.42;2.08;;;;;;;21.44;30.14;99453.75;5069071;28;20040;-72
2022/09/08 10:15:38;;;;;;;4.50;1.95;;;;;;;22.16;29.67;99465.22;5053028;28;20087;-72
2022/09/08 10:18:28;;;;;;;5.35;1.90;;;;;;;25.05;25.26;99477.84;5035676;28;20125;-73
2022/09/08 10:21:21;;;;;;;2.30;1.55;;;;;;;27.55;21.84;99492.25;5036183;28;20087;-73
2022/09/08 10:23:56;;;;;;;5.10;1.60;;;;;;;27.76;21.89;99500.19;5035133;28;20040;-74
2022/09/08 10:26:43;;;;;;;3.70;1.60;;;;;;;27.43;21.72;99500.69;5035971;28;20040;-73
2022/09/08 10:29:34;;;;;;;3.08;1.30;;;;;;;27.02;21.57;99477.13;5019582;28;20102;-73
2022/09/08 10:32:24;;;;;;;1.85;1.40;;;;;;;26.28;22.37;99475.66;5052097;28;20040;-73
2022/09/08 10:35:27;;;;;;;3.30;1.33;;;;;;;25.52;23.47;99498.75;5052950;28;20412;-74
2022/09/08 10:38:24;;;;;;;3.15;1.30;;;;;;;24.44;24.99;99500.66;5052307;28;20048;-73
2022/09/08 10:41:05;;;;;;;1.58;1.40;;;;;;;23.65;26.18;99499.13;5035618;28;20500;-72
2022/09/08 10:43:37;;;;;;;2.00;1.60;;;;;;;22.80;26.92;99501.00;5035856;28;20515;-72
2022/09/08 10:46:31;;;;;;;2.88;1.50;;;;;;;22.26;28.20;99498.75;5051832;28;20444;-73
2022/09/08 10:49:09;;;;;;;5.07;1.20;;;;;;;21.96;28.70;99499.94;5035413;28;20056;-72
2022/09/08 10:51:40;;;;;;;7.63;1.70;;;;;;;21.47;29.39;99498.41;5052236;28;20094;-74
2022/09/08 10:54:33;;;;;;;2.92;1.60;;;;;;;21.85;28.94;99506.94;5051799;28;20048;-72
2022/09/08 10:57:26;;;;;;;2.45;1.20;;;;;;;23.26;26.94;99519.84;5051932;28;20048;-70
2022/09/08 11:00:10;;;;;;;2.08;1.40;;;;;;;24.99;24.65;99527.78;5005164;28;20052;-70
2022/09/08 11:02:58;;;;;;;2.97;1.42;;;;;;;25.43;23.72;99522.00;5051614;28;20169;-70
2022/09/08 11:05:46;;;;;;;2.10;1.40;;;;;;;25.23;23.67;99508.22;5035016;28;20496;-71
2022/09/08 11:08:26;;;;;;;1.58;1.40;;;;;;;25.46;23.40;99516.09;5019437;28;20121;-72
2022/09/08 11:11:06;;;;;;;4.27;3.30;;;;;;;25.94;23.15;99526.84;5035819;28;20542;-73
2022/09/08 11:13:44;;;;;;;3.25;1.40;;;;;;;25.65;23.40;99530.09;5035483;28;20091;-73
2022/09/08 11:16:29;;;;;;;1.67;1.30;;;;;;;25.26;23.34;99525.91;5035488;28;20079;-72
2022/09/08 11:19:31;;;;;;;2.60;1.42;;;;;;;24.33;24.39;99531.44;5034386;28;20052;-71
2022/09/08 11:22:08;;;;;;;6.75;1.63;;;;;;;23.35;26.00;99536.56;5047616;28;20048;-70
2022/09/08 11:24:41;;;;;;;3.10;1.33;;;;;;;22.52;27.46;99530.75;5035204;28;20059;-71
2022/09/08 11:27:33;;;;;;;2.92;1.50;;;;;;;21.79;28.47;99534.13;5035122;28;20044;-71
2022/09/08 11:30:22;;;;;;;3.38;1.20;;;;;;;21.30;29.64;99535.22;5034626;28;20048;-75
2022/09/08 11:33:32;;;;;;;3.13;1.20;;;;;;;20.79;30.83;99537.56;5073877;28;20043;-73
2022/09/08 11:36:09;;;;;;;2.00;1.38;;;;;;;20.36;31.48;99531.41;5036032;28;20044;-69
2022/09/08 11:38:57;;;;;;;2.35;1.52;;;;;;;20.02;31.94;99517.34;5054492;28;20075;-71
2022/09/08 11:41:44;;;;;;;4.57;1.45;;;;;;;19.87;32.19;99519.56;5054860;28;20044;-70
2022/09/08 11:44:19;;;;;;;2.45;1.40;;;;;;;19.83;32.66;99534.50;5054410;28;20539;-70
2022/09/08 11:47:17;;;;;;;3.08;1.38;;;;;;;20.04;32.08;99527.91;5054909;28;20939;-70
2022/09/08 11:50:01;;;;;;;5.00;1.50;;;;;;;20.41;31.41;99509.94;5054773;28;20142;-72
2022/09/08 11:52:42;;;;;;;2.25;1.75;;;;;;;20.99;30.73;99524.63;5071505;28;20048;-70
2022/09/08 11:55:31;;;;;;;;;;;;;;;21.53;29.73;99538.00;5071668;28;20047;-72
2022/09/08 11:58:21;;;;;;;4.43;1.20;;;;;;;22.03;28.42;99546.63;5088017;28;19920;-71
2022/09/08 12:00:57;;;;;;;2.15;1.50;;;;;;;22.20;28.06;99539.44;5054604;28;20499;-71
2022/09/08 12:03:31;;;;;;;4.93;1.92;;;;;;;22.25;27.67;99553.91;5054202;28;20044;-70
2022/09/08 12:06:11;;;;;;;2.15;1.48;;;;;;;22.21;27.67;99547.31;5051950;28;20180;-72
2022/09/08 12:08:50;;;;;;;3.47;1.40;;;;;;;22.21;27.63;99541.91;5052540;28;20083;-73
2022/09/08 12:11:34;;;;;;;4.38;1.75;;;;;;;21.89;28.58;99540.59;5085677;28;20046;-71
2022/09/08 12:14:18;;;;;;;3.10;1.63;;;;;;;21.76;28.38;99548.91;5068722;28;20052;-70
2022/09/08 12:16:44;;;;;;;2.83;1.45;;;;;;;21.59;28.96;99547.91;5053042;28;20055;-69
2022/09/08 12:19:31;;;;;;;1.73;1.27;;;;;;;21.31;29.32;99539.59;5052839;28;20040;-70